createdAt,value
2023-05-05T00:04:56.825Z,101504.84
2023-05-05T00:10:00.138Z,101494.22
2023-05-05T00:15:02.611Z,101496.00
2023-05-05T00:20:05.872Z,101492.50
2023-05-05T00:25:09.509Z,101487.19
2023-05-05T00:30:11.926Z,101485.47
2023-05-05T00:35:13.585Z,101480.19
2023-05-05T00:40:17.265Z,101480.16
2023-05-05T00:45:20.446Z,101474.88
2023-05-05T00:50:23.858Z,101479.31
2023-05-05T00:55:28.725Z,101472.22
2023-05-05T01:00:31.161Z,101471.34
2023-05-05T01:05:43.070Z,101475.78
2023-05-05T01:10:53.174Z,101458.91
2023-05-05T01:16:01.746Z,101458.97
2023-05-05T01:21:13.189Z,101457.16
2023-05-05T01:26:48.475Z,101464.22
2023-05-05T01:31:54.147Z,101454.47
2023-05-05T01:37:04.696Z,101462.44
2023-05-05T01:42:10.185Z,101462.41
2023-05-05T01:47:16.211Z,101458.91
2023-05-05T01:52:19.174Z,101458.00
2023-05-05T01:57:23.347Z,101458.84
2023-05-05T02:02:29.259Z,101449.09
2023-05-05T02:07:34.645Z,101451.75
2023-05-05T02:12:37.790Z,101464.97
2023-05-05T02:17:43.223Z,101463.19
2023-05-05T02:22:45.689Z,101461.41
2023-05-05T02:27:51.264Z,101461.34
2023-05-05T02:33:00.016Z,101461.34
2023-05-05T02:38:03.644Z,101455.94
2023-05-05T02:43:10.027Z,101459.44
2023-05-05T02:48:13.513Z,101455.84
2023-05-05T02:53:15.781Z,101451.34
2023-05-05T02:58:24.578Z,101469.81
2023-05-05T03:03:36.476Z,101460.91
2023-05-05T03:08:44.710Z,101457.47
2023-05-05T03:13:51.409Z,101454.78
2023-05-05T03:18:57.430Z,101453.91
2023-05-05T03:23:59.957Z,101452.06
2023-05-05T03:29:02.054Z,101447.66
2023-05-05T03:34:05.858Z,101442.38
2023-05-05T03:39:07.612Z,101450.31
2023-05-05T03:44:10.015Z,101444.19
2023-05-05T03:49:13.457Z,101430.06
2023-05-05T03:54:15.708Z,101438.88
2023-05-05T03:59:17.743Z,101437.16
2023-05-05T04:04:21.271Z,101434.56
2023-05-05T04:09:23.633Z,101431.91
2023-05-05T04:14:26.131Z,101443.41
2023-05-05T04:19:32.386Z,101442.56
2023-05-05T04:24:34.519Z,101444.38
2023-05-05T04:29:36.206Z,101439.13
2023-05-05T04:34:39.428Z,101449.91
2023-05-05T04:39:42.097Z,101468.66
2023-05-05T04:44:44.155Z,101466.69
2023-05-05T04:49:47.568Z,101474.25
2023-05-05T04:54:49.682Z,101468.81
2023-05-05T04:59:51.767Z,101480.88
2023-05-05T05:04:55.696Z,101480.25
2023-05-05T05:09:58.243Z,101473.88
2023-05-05T05:15:00.389Z,101490.22
2023-05-05T05:20:04.249Z,101489.78
2023-05-05T05:25:07.084Z,101489.63
2023-05-05T05:30:10.563Z,101493.81
2023-05-05T05:35:14.167Z,101487.09
2023-05-05T05:40:16.981Z,101488.34
2023-05-05T05:45:19.399Z,101486.94
2023-05-05T05:50:23.014Z,101497.22
2023-05-05T05:55:24.846Z,101489.88
2023-05-05T06:00:26.574Z,101486.00
2023-05-05T06:05:29.904Z,101482.25
2023-05-05T06:10:32.156Z,101487.81
2023-05-05T06:15:34.167Z,101485.44
2023-05-05T06:20:37.228Z,101488.31
2023-05-05T06:25:39.350Z,101495.97
2023-05-05T06:30:41.429Z,101490.72
2023-05-05T06:35:44.878Z,101484.81
2023-05-05T06:40:48.118Z,101477.66
2023-05-05T06:45:50.635Z,101472.34
2023-05-05T06:50:54.105Z,101491.78
2023-05-05T06:55:55.810Z,101496.03
2023-05-05T07:00:58.025Z,101506.06
2023-05-05T07:06:01.136Z,101501.50
2023-05-05T07:11:03.317Z,101504.88
2023-05-05T07:16:06.487Z,101491.88
2023-05-05T07:21:10.422Z,101505.50
2023-05-05T07:26:12.903Z,101501.47
2023-05-05T07:31:15.348Z,101509.50
2023-05-05T07:36:19.070Z,101504.97
2023-05-05T07:41:21.167Z,101520.69
2023-05-05T07:46:23.380Z,101519.34
2023-05-05T07:51:26.662Z,101509.63
2023-05-05T07:56:28.996Z,101509.25
2023-05-05T08:01:31.274Z,101496.34
2023-05-05T08:06:34.924Z,101503.41
2023-05-05T08:11:37.072Z,101506.13
2023-05-05T08:16:39.338Z,101498.97
2023-05-05T08:21:43.334Z,101500.97
2023-05-05T08:26:45.707Z,101487.50
2023-05-05T08:31:47.891Z,101483.06
2023-05-05T08:36:51.839Z,101485.47
2023-05-05T08:41:53.954Z,101491.72
2023-05-05T08:46:56.970Z,101504.41
2023-05-05T08:52:02.914Z,101503.06
2023-05-05T08:57:09.304Z,101503.97
2023-05-05T09:02:13.194Z,101503.09
2023-05-05T09:07:17.312Z,101497.94
2023-05-05T09:12:20.286Z,101485.53
2023-05-05T09:17:23.479Z,101481.94
2023-05-05T09:22:35.578Z,101482.28
2023-05-05T09:27:38.371Z,101480.44
2023-05-05T09:32:44.631Z,101481.53
2023-05-05T09:37:48.195Z,101482.75
2023-05-05T09:43:01.423Z,101473.78
2023-05-05T09:48:05.637Z,101476.34
2023-05-05T09:53:10.630Z,101492.66
2023-05-05T09:58:19.261Z,101484.72
2023-05-05T10:03:21.474Z,101486.44
2023-05-05T10:08:26.460Z,101484.63
2023-05-05T10:13:28.895Z,101476.88
2023-05-05T10:18:32.526Z,101469.75
2023-05-05T10:23:39.211Z,101461.91
2023-05-05T10:28:44.469Z,101457.75
2023-05-05T10:33:52.754Z,101466.00
2023-05-05T10:38:56.912Z,101454.91
2023-05-05T10:44:00.922Z,101448.31
2023-05-05T10:49:13.550Z,101440.69
2023-05-05T10:54:30.490Z,101450.72
2023-05-05T10:59:42.856Z,101437.13
2023-05-05T11:05:02.857Z,101430.94
2023-05-05T11:10:07.874Z,101421.66
2023-05-05T11:15:34.895Z,101417.06
2023-05-05T11:21:02.970Z,101408.91
2023-05-05T11:26:06.671Z,101404.28
2023-05-05T11:31:19.978Z,101390.97
2023-05-05T11:36:39.940Z,101387.47
2023-05-05T11:42:16.375Z,101378.97
2023-05-05T11:47:31.958Z,101348.78
2023-05-05T11:52:34.454Z,101370.97
2023-05-05T11:57:38.436Z,101371.44
2023-05-05T12:02:40.696Z,101363.63
2023-05-05T12:07:43.092Z,101371.41
2023-05-05T12:12:47.038Z,101354.81
2023-05-05T12:17:49.635Z,101353.28
2023-05-05T12:22:51.911Z,101358.78
2023-05-05T12:27:55.723Z,101342.53
2023-05-05T12:33:02.578Z,101338.66
2023-05-05T12:38:04.821Z,101336.72
2023-05-05T12:43:07.946Z,101349.53
2023-05-05T12:48:22.120Z,101336.72
2023-05-05T12:53:25.461Z,101339.50
2023-05-05T12:58:29.157Z,101330.88
2023-05-05T13:03:31.401Z,101321.94
2023-05-05T13:08:42.915Z,101324.19
2023-05-05T13:13:46.289Z,101315.63
2023-05-05T13:18:49.528Z,101303.25
2023-05-05T13:23:51.875Z,101302.44
2023-05-05T13:28:55.229Z,101285.34
2023-05-05T13:33:57.191Z,101284.47
2023-05-05T13:38:59.326Z,101280.50
2023-05-05T13:44:03.110Z,101270.66
2023-05-05T13:49:05.222Z,101250.91
2023-05-05T13:54:07.988Z,101257.09
2023-05-05T13:59:11.623Z,101255.88
2023-05-05T14:04:13.739Z,101241.44
2023-05-05T14:09:15.917Z,101228.72
2023-05-05T14:14:19.369Z,101228.88
2023-05-05T14:19:21.456Z,101222.94
2023-05-05T14:24:23.212Z,101223.09
2023-05-05T14:29:26.422Z,101225.28
2023-05-05T14:34:28.334Z,101209.47
2023-05-05T14:39:30.128Z,101219.59
2023-05-05T14:44:33.268Z,101224.03
2023-05-05T14:49:35.176Z,101218.81
2023-05-05T14:54:37.088Z,101222.56
2023-05-05T14:59:40.670Z,101221.75
2023-05-05T15:04:42.925Z,101219.19
2023-05-05T15:09:45.084Z,101205.00
2023-05-05T15:14:48.462Z,101198.66
2023-05-05T15:19:51.266Z,101192.41
2023-05-05T15:24:53.663Z,101188.94
2023-05-05T15:29:57.655Z,101189.94
2023-05-05T15:35:01.040Z,101190.59
2023-05-05T15:40:03.772Z,101177.75
2023-05-05T15:45:08.425Z,101182.59
2023-05-05T15:50:10.720Z,101191.59
2023-05-05T15:55:12.689Z,101178.28
2023-05-05T16:00:16.747Z,101184.53
2023-05-05T16:05:21.358Z,101180.28
2023-05-05T16:10:25.006Z,101183.69
2023-05-05T16:15:28.085Z,101190.31
2023-05-05T16:20:29.887Z,101178.09
2023-05-05T16:25:31.592Z,101174.19
2023-05-05T16:30:34.632Z,101177.69
2023-05-05T16:35:36.376Z,101173.63
2023-05-05T16:40:38.543Z,101179.00
2023-05-05T16:45:42.139Z,101176.00
2023-05-05T16:50:43.897Z,101168.75
2023-05-05T16:55:50.130Z,101165.94
2023-05-05T17:00:53.733Z,101174.41
2023-05-05T17:05:55.836Z,101153.50
2023-05-05T17:10:57.880Z,101157.75
2023-05-05T17:16:01.001Z,101160.72
2023-05-05T17:21:02.932Z,101150.00
2023-05-05T17:26:04.885Z,101145.00
2023-05-05T17:31:08.019Z,101142.97
2023-05-05T17:36:10.383Z,101152.53
2023-05-05T17:41:12.133Z,101149.50
2023-05-05T17:46:15.231Z,101156.88
2023-05-05T17:51:17.224Z,101159.91
2023-05-05T17:56:19.127Z,101156.59
2023-05-05T18:01:22.690Z,101158.53
2023-05-05T18:06:25.093Z,101152.56
2023-05-05T18:11:26.862Z,101153.63
2023-05-05T18:16:30.112Z,101146.88
2023-05-05T18:21:31.950Z,101153.44
2023-05-05T18:26:33.721Z,101160.75
2023-05-05T18:31:36.893Z,101156.47
2023-05-05T18:36:38.813Z,101165.19
2023-05-05T18:41:41.149Z,101181.78
2023-05-05T18:46:44.536Z,101179.00
2023-05-05T18:51:46.548Z,101186.00
2023-05-05T18:56:48.483Z,101187.06
2023-05-05T19:01:52.057Z,101178.00
2023-05-05T19:06:54.326Z,101189.75
2023-05-05T19:11:56.662Z,101203.22
2023-05-05T19:17:00.066Z,101196.19
2023-05-05T19:22:03.626Z,101210.56
2023-05-05T19:27:05.628Z,101200.06
2023-05-05T19:32:09.973Z,101200.22
2023-05-05T19:37:12.209Z,101200.34
2023-05-05T19:42:14.221Z,101206.03
2023-05-05T19:47:17.318Z,101215.13
2023-05-05T19:52:19.091Z,101206.47
2023-05-05T19:57:21.020Z,101215.63
2023-05-05T20:02:24.444Z,101222.09
2023-05-05T20:07:26.310Z,101225.88
2023-05-05T20:12:28.359Z,101221.53
2023-05-05T20:17:32.047Z,101223.53
2023-05-05T20:22:34.552Z,101227.31
2023-05-05T20:27:39.366Z,101242.53
2023-05-05T20:32:43.164Z,101239.06
2023-05-05T20:37:44.811Z,101235.06
2023-05-05T20:42:46.998Z,101238.13
2023-05-05T20:47:50.248Z,101237.75
2023-05-05T20:52:52.704Z,101240.59
2023-05-05T20:57:55.056Z,101244.59
2023-05-05T21:02:58.644Z,101234.56
2023-05-05T21:08:01.261Z,101219.06
2023-05-05T21:13:03.911Z,101216.69
2023-05-05T21:18:07.405Z,101222.09
2023-05-05T21:23:09.257Z,101221.16
2023-05-05T21:28:11.419Z,101223.19
2023-05-05T21:33:15.129Z,101222.91
2023-05-05T21:38:16.899Z,101235.59
2023-05-05T21:43:18.996Z,101239.31
2023-05-05T21:48:22.547Z,101243.91
2023-05-05T21:53:24.500Z,101244.88
2023-05-05T21:58:26.931Z,101245.09
2023-05-05T22:03:30.587Z,101241.75
2023-05-05T22:08:32.797Z,101238.41
2023-05-05T22:13:34.910Z,101232.34
2023-05-05T22:18:38.488Z,101237.81
2023-05-05T22:23:40.579Z,101238.78
2023-05-05T22:28:42.727Z,101237.88
2023-05-05T22:33:46.233Z,101236.13
2023-05-05T22:38:48.278Z,101227.41
2023-05-05T22:43:50.390Z,101223.25
2023-05-05T22:48:53.810Z,101221.47
2023-05-05T22:53:56.064Z,101226.91
2023-05-05T22:58:58.514Z,101221.53
2023-05-05T23:04:02.175Z,101214.47
2023-05-05T23:09:04.356Z,101208.41
2023-05-05T23:14:06.476Z,101209.41
2023-05-05T23:19:09.876Z,101218.28
2023-05-05T23:24:11.945Z,101209.47
2023-05-05T23:29:13.696Z,101220.13
2023-05-05T23:34:17.268Z,101220.97
2023-05-05T23:39:19.324Z,101228.09
2023-05-05T23:44:21.461Z,101227.19
2023-05-05T23:49:24.985Z,101220.09
2023-05-05T23:54:27.009Z,101219.31
2023-05-05T23:59:29.303Z,101215.75
